Time;durP1;ratioP1;P1;durP2;ratioP2;P2;SDS_P1;SDS_P2;PMS_P1;PMS_P2;Temp;Humidity;BMP_temperature;BMP_pressure;BME280_temperature;BME280_humidity;BME280_pressure;Samples;Min_cycle;Max_cycle;Signal;HPM_P1;HPM_P2
2021/07/14 00:00:23;;;;;;;22.93;20.63;;;20.80;99.90;;;;;;5056264;28;20441;-76
2021/07/14 00:02:50;;;;;;;22.80;20.40;;;20.80;99.90;;;;;;5055875;28;20523;-77
2021/07/14 00:05:20;;;;;;;21.47;19.40;;;20.80;99.90;;;;;;5056145;28;20469;-78
2021/07/14 00:07:48;;;;;;;23.93;21.63;;;20.80;99.90;;;;;;5056191;28;20904;-77
2021/07/14 00:10:18;;;;;;;21.90;19.60;;;20.80;99.90;;;;;;5056130;28;20491;-76
2021/07/14 00:12:52;;;;;;;22.23;20.13;;;20.80;99.90;;;;;;5056008;28;20524;-78
2021/07/14 00:23:36;;;;;;;21.97;19.67;;;20.60;99.90;;;;;;5056291;28;20910;-77
2021/07/14 00:26:03;;;;;;;21.27;18.97;;;20.60;99.90;;;;;;5056378;28;20453;-77
2021/07/14 00:28:33;;;;;;;22.73;20.20;;;20.60;99.90;;;;;;5055811;28;20446;-76
2021/07/14 00:31:01;;;;;;;22.80;20.27;;;20.60;99.90;;;;;;5055608;28;20450;-77
2021/07/14 00:33:28;;;;;;;23.27;20.17;;;20.60;99.90;;;;;;5055648;28;20895;-77
2021/07/14 00:35:56;;;;;;;25.03;20.30;;;20.60;99.90;;;;;;5055994;28;20484;-76
2021/07/14 00:38:23;;;;;;;23.43;21.07;;;20.60;99.90;;;;;;5055944;28;20491;-77
2021/07/14 00:40:50;;;;;;;22.43;20.13;;;20.60;99.90;;;;;;5056674;28;20445;-77
2021/07/14 00:43:17;;;;;;;23.83;21.20;;;20.60;99.90;;;;;;5056263;28;20549;-76
2021/07/14 00:45:43;;;;;;;23.07;20.83;;;20.60;99.90;;;;;;5055616;28;20956;-77
2021/07/14 00:48:11;;;;;;;21.83;19.67;;;20.60;99.90;;;;;;5055880;28;20477;-77
2021/07/14 00:50:39;;;;;;;24.30;21.87;;;20.50;99.90;;;;;;5055813;28;20446;-77
2021/07/14 00:53:07;;;;;;;57.33;46.10;;;20.50;99.90;;;;;;5054381;28;20519;-77
2021/07/14 00:55:34;;;;;;;51.83;44.73;;;20.50;99.90;;;;;;5055136;28;20456;-77
2021/07/14 00:58:01;;;;;;;67.67;58.40;;;20.50;99.90;;;;;;5055056;28;20943;-76
2021/07/14 01:00:28;;;;;;;51.57;45.97;;;20.60;99.90;;;;;;5054995;28;20485;-77
2021/07/14 01:02:55;;;;;;;48.20;42.60;;;20.60;99.90;;;;;;5054562;28;20504;-77
2021/07/14 01:05:24;;;;;;;34.37;28.40;;;20.60;99.90;;;;;;5055066;28;20514;-76
2021/07/14 01:07:56;;;;;;;31.33;27.97;;;20.70;99.90;;;;;;5054965;28;20528;-77
2021/07/14 01:10:30;;;;;;;32.43;26.07;;;20.60;99.90;;;;;;5054823;28;20940;-77
2021/07/14 01:13:03;;;;;;;29.10;23.43;;;20.60;99.90;;;;;;5054344;28;21145;-77
2021/07/14 01:15:35;;;;;;;28.20;24.17;;;20.60;99.90;;;;;;5054829;28;20840;-77
2021/07/14 01:18:08;;;;;;;24.60;22.17;;;20.60;99.90;;;;;;5054912;28;20458;-77
2021/07/14 01:20:44;;;;;;;24.53;22.13;;;20.50;99.90;;;;;;5054881;28;20462;-77
2021/07/14 01:23:17;;;;;;;22.70;20.33;;;20.60;99.90;;;;;;5054325;28;21013;-76
2021/07/14 01:25:57;;;;;;;23.93;21.33;;;20.50;99.90;;;;;;5054686;28;20971;-77
2021/07/14 01:28:28;;;;;;;22.53;20.13;;;20.50;99.90;;;;;;5054225;28;20935;-76
2021/07/14 01:30:56;;;;;;;29.27;21.77;;;20.60;99.90;;;;;;5054397;28;20554;-76
2021/07/14 01:33:25;;;;;;;22.47;20.10;;;20.40;99.90;;;;;;5054289;28;20510;-77
2021/07/14 01:35:55;;;;;;;26.00;22.30;;;20.40;99.90;;;;;;5054243;28;20863;-77
2021/07/14 01:38:25;;;;;;;21.93;19.60;;;20.40;99.90;;;;;;5054353;28;20511;-77
2021/07/14 01:40:54;;;;;;;24.13;21.60;;;20.30;99.90;;;;;;5054354;28;20564;-77
2021/07/14 01:43:21;;;;;;;21.83;19.50;;;20.30;99.90;;;;;;5054118;28;20499;-77
2021/07/14 01:45:53;;;;;;;24.20;20.60;;;20.30;99.90;;;;;;5053997;28;20829;-76
2021/07/14 01:48:22;;;;;;;23.83;21.50;;;20.10;99.90;;;;;;5054255;28;20528;-77
2021/07/14 01:50:51;;;;;;;28.13;23.97;;;20.20;99.90;;;;;;5054147;28;20445;-76
2021/07/14 01:53:20;;;;;;;24.73;22.23;;;20.30;99.90;;;;;;5053983;28;20540;-77
2021/07/14 01:55:48;;;;;;;31.10;23.10;;;20.20;99.90;;;;;;5053917;28;20507;-76
2021/07/14 01:58:16;;;;;;;26.63;23.67;;;20.10;99.90;;;;;;5053940;28;20449;-77
2021/07/14 02:00:43;;;;;;;28.03;22.40;;;20.20;99.90;;;;;;5053991;28;20450;-76
2021/07/14 02:03:28;;;;;;;22.47;20.17;;;20.20;99.90;;;;;;5053299;28;20598;-76
2021/07/14 02:05:57;;;;;;;27.17;22.77;;;19.40;99.90;;;;;;5053425;28;20800;-76
2021/07/14 02:08:24;;;;;;;23.10;20.80;;;20.20;99.90;;;;;;5053903;28;20528;-76
2021/07/14 02:10:52;;;;;;;27.00;22.17;;;20.20;99.90;;;;;;5053834;28;20450;-76
2021/07/14 02:13:20;;;;;;;29.23;21.37;;;19.90;99.90;;;;;;5053820;28;20521;-76
2021/07/14 02:15:51;;;;;;;24.47;20.87;;;20.10;99.90;;;;;;5053950;28;20481;-76
2021/07/14 02:18:21;;;;;;;23.53;21.13;;;20.10;99.90;;;;;;5053997;28;20537;-77
2021/07/14 02:20:48;;;;;;;23.63;21.13;;;20.10;99.90;;;;;;5053621;28;20549;-76
2021/07/14 02:23:15;;;;;;;24.63;21.50;;;20.10;99.90;;;;;;5053718;28;20496;-76
2021/07/14 02:25:41;;;;;;;25.47;22.70;;;20.10;99.90;;;;;;5053903;28;20449;-77
2021/07/14 02:28:08;;;;;;;25.67;22.93;;;20.10;99.90;;;;;;5053777;28;20449;-76
2021/07/14 02:30:35;;;;;;;22.83;20.43;;;20.10;99.90;;;;;;5053621;28;20480;-76
2021/07/14 02:33:05;;;;;;;26.50;23.70;;;20.10;99.90;;;;;;5053507;28;20564;-76
2021/07/14 02:35:37;;;;;;;24.33;21.60;;;20.00;99.90;;;;;;5053539;28;20442;-76
2021/07/14 02:38:10;;;;;;;35.10;24.03;;;20.00;99.90;;;;;;5053885;28;20806;-76
2021/07/14 02:40:41;;;;;;;24.90;22.20;;;20.00;99.90;;;;;;5054460;28;20496;-76
2021/07/14 02:43:09;;;;;;;27.83;23.37;;;20.00;99.90;;;;;;5054621;28;20489;-76
2021/07/14 02:45:43;;;;;;;25.10;21.60;;;20.00;99.90;;;;;;5054388;28;20449;-76
2021/07/14 02:48:11;;;;;;;24.63;21.90;;;20.00;99.90;;;;;;5054548;28;20483;-77
2021/07/14 02:50:40;;;;;;;25.77;21.17;;;19.90;99.90;;;;;;5054055;28;20876;-77
2021/07/14 02:53:11;;;;;;;25.63;22.20;;;19.90;99.90;;;;;;5053852;28;20577;-76
2021/07/14 02:55:39;;;;;;;26.10;21.77;;;19.90;99.90;;;;;;5053809;28;20932;-77
2021/07/14 02:58:07;;;;;;;26.30;22.87;;;20.00;99.90;;;;;;5053602;28;20484;-76
2021/07/14 03:00:37;;;;;;;25.40;22.27;;;20.00;99.90;;;;;;5053658;28;20499;-76
2021/07/14 03:03:06;;;;;;;25.17;21.20;;;20.10;99.90;;;;;;5053271;28;20571;-76
2021/07/14 03:05:33;;;;;;;25.67;21.90;;;20.10;99.90;;;;;;5053214;28;20449;-76
2021/07/14 03:08:05;;;;;;;29.80;21.20;;;20.10;99.90;;;;;;5053385;28;20453;-76
2021/07/14 03:10:32;;;;;;;23.27;20.97;;;20.10;99.90;;;;;;5053290;28;20780;-76
2021/07/14 03:13:03;;;;;;;21.00;18.73;;;20.10;99.90;;;;;;5052982;28;20500;-77
2021/07/14 03:15:30;;;;;;;22.93;20.53;;;20.10;99.90;;;;;;5054168;28;20434;-77
2021/07/14 03:17:58;;;;;;;27.50;19.90;;;20.10;99.90;;;;;;5056984;28;20911;-75
2021/07/14 03:20:26;;;;;;;21.83;18.97;;;20.10;99.90;;;;;;5057903;28;20445;-76
2021/07/14 03:22:53;;;;;;;20.83;18.63;;;20.00;99.90;;;;;;5057258;28;20508;-75
2021/07/14 03:25:22;;;;;;;24.90;19.20;;;20.00;99.90;;;;;;5058156;28;20502;-76
2021/07/14 03:27:51;;;;;;;21.73;18.60;;;20.00;99.90;;;;;;5057139;28;20495;-77
2021/07/14 03:30:19;;;;;;;20.87;18.40;;;20.00;99.90;;;;;;5057090;28;20483;-76
2021/07/14 03:32:46;;;;;;;20.50;17.60;;;20.00;99.90;;;;;;5056833;28;20983;-76
2021/07/14 03:35:14;;;;;;;20.20;18.10;;;20.00;99.90;;;;;;5056907;28;20950;-77
2021/07/14 03:37:41;;;;;;;21.13;16.80;;;20.00;99.90;;;;;;5056645;28;20484;-76
2021/07/14 03:40:09;;;;;;;21.40;17.30;;;19.90;99.90;;;;;;5056889;28;20446;-76
2021/07/14 03:42:39;;;;;;;20.50;17.50;;;19.90;99.90;;;;;;5057105;28;20465;-77
2021/07/14 03:45:07;;;;;;;19.80;16.70;;;19.90;99.90;;;;;;5056718;28;20484;-76
2021/07/14 03:47:35;;;;;;;21.63;18.13;;;19.90;99.90;;;;;;5056708;28;20506;-76
2021/07/14 03:50:04;;;;;;;24.20;17.00;;;19.90;99.90;;;;;;5056512;28;20576;-77
2021/07/14 03:52:31;;;;;;;19.50;16.43;;;19.80;99.90;;;;;;5056467;28;20497;-77
2021/07/14 03:55:00;;;;;;;21.13;16.03;;;19.90;99.90;;;;;;5056599;28;20477;-76
2021/07/14 03:57:27;;;;;;;19.43;14.93;;;19.90;99.90;;;;;;5057081;28;20859;-77
2021/07/14 03:59:55;;;;;;;23.00;15.03;;;19.90;99.90;;;;;;5056287;28;20469;-76
2021/07/14 04:02:23;;;;;;;20.47;15.27;;;19.90;99.90;;;;;;5069908;22;20615;-75
2021/07/14 04:04:51;;;;;;;15.90;14.00;;;19.90;99.90;;;;;;5055471;28;20438;-75
2021/07/14 04:07:21;;;;;;;18.40;16.47;;;19.90;99.90;;;;;;5055599;28;20473;-75
2021/07/14 04:09:48;;;;;;;24.13;15.60;;;19.90;99.90;;;;;;5055588;28;20477;-75
2021/07/14 04:12:16;;;;;;;16.07;13.63;;;19.90;99.90;;;;;;5055379;28;20539;-75
2021/07/14 04:14:43;;;;;;;21.50;15.27;;;19.90;99.90;;;;;;5055611;28;20664;-75
2021/07/14 04:17:11;;;;;;;17.50;14.40;;;19.90;99.90;;;;;;5055676;28;20741;-75
2021/07/14 04:19:40;;;;;;;17.70;14.03;;;19.90;99.90;;;;;;5055500;28;20473;-75
2021/07/14 04:22:08;;;;;;;16.70;14.63;;;19.90;99.90;;;;;;5055694;28;20470;-75
2021/07/14 04:24:35;;;;;;;21.97;14.60;;;20.00;99.90;;;;;;5055700;28;20482;-75
2021/07/14 04:27:01;;;;;;;17.43;14.00;;;19.90;99.90;;;;;;5055340;28;20483;-75
2021/07/14 04:29:28;;;;;;;20.07;13.80;;;19.90;99.90;;;;;;5055724;28;20446;-75
2021/07/14 04:31:55;;;;;;;21.60;15.30;;;19.80;99.90;;;;;;5056284;28;20500;-76
2021/07/14 04:34:23;;;;;;;19.30;14.00;;;19.80;99.90;;;;;;5055537;28;20528;-75
2021/07/14 04:36:49;;;;;;;26.17;16.10;;;19.80;99.90;;;;;;5055306;28;21031;-75
2021/07/14 04:39:16;;;;;;;25.10;16.37;;;19.80;99.90;;;;;;5055826;28;20504;-75
2021/07/14 04:41:42;;;;;;;24.00;17.87;;;19.70;99.90;;;;;;5055867;28;20501;-75
2021/07/14 04:44:11;;;;;;;26.80;16.90;;;19.70;99.90;;;;;;5055767;28;20476;-75
2021/07/14 04:46:39;;;;;;;27.27;19.70;;;19.60;99.90;;;;;;5055317;28;20549;-75
2021/07/14 04:49:05;;;;;;;27.77;18.17;;;19.60;99.90;;;;;;5055956;28;20446;-75
2021/07/14 04:51:33;;;;;;;26.60;17.93;;;19.70;99.90;;;;;;5055772;28;21530;-75
2021/07/14 04:54:00;;;;;;;24.00;17.00;;;19.80;99.90;;;;;;5055841;28;20520;-75
2021/07/14 04:56:26;;;;;;;26.20;18.43;;;19.80;99.90;;;;;;5056031;28;20532;-75
2021/07/14 04:58:53;;;;;;;30.17;19.20;;;19.80;99.90;;;;;;5055680;28;20478;-75
2021/07/14 05:01:19;;;;;;;27.47;18.37;;;19.80;99.90;;;;;;5055479;28;20473;-75
2021/07/14 05:03:47;;;;;;;29.30;19.53;;;19.80;99.90;;;;;;5055350;28;20493;-75
2021/07/14 05:06:14;;;;;;;31.50;20.13;;;19.80;99.90;;;;;;5056082;28;20793;-75
2021/07/14 05:08:43;;;;;;;32.63;20.97;;;19.90;99.90;;;;;;5055425;28;20477;-75
2021/07/14 05:11:09;;;;;;;26.50;19.30;;;19.90;99.90;;;;;;5056292;28;20476;-75
2021/07/14 05:13:36;;;;;;;24.40;17.93;;;19.90;99.90;;;;;;5056039;28;20496;-75
2021/07/14 05:16:02;;;;;;;21.03;18.67;;;20.00;99.90;;;;;;5055110;28;20511;-76
2021/07/14 05:18:29;;;;;;;26.53;18.70;;;20.00;99.90;;;;;;5055366;28;20487;-75
2021/07/14 05:20:56;;;;;;;24.23;17.80;;;20.00;99.90;;;;;;5054815;28;20527;-75
2021/07/14 05:23:22;;;;;;;23.20;17.67;;;20.10;99.90;;;;;;5054652;28;20511;-75
2021/07/14 05:25:50;;;;;;;23.93;15.90;;;20.20;99.90;;;;;;5054569;28;20481;-76
2021/07/14 05:28:16;;;;;;;25.23;17.93;;;20.20;99.90;;;;;;5055026;28;20485;-76
2021/07/14 05:30:43;;;;;;;15.80;14.10;;;20.20;99.90;;;;;;5053949;28;20476;-76
2021/07/14 05:33:10;;;;;;;23.50;15.83;;;20.30;99.90;;;;;;5054279;28;20500;-76
2021/07/14 05:35:36;;;;;;;22.47;16.83;;;20.30;99.90;;;;;;5054577;28;20482;-75
2021/07/14 05:38:03;;;;;;;22.73;15.60;;;20.30;99.90;;;;;;5054564;28;20555;-75
2021/07/14 05:40:31;;;;;;;24.07;15.80;;;20.40;99.90;;;;;;5054570;28;20495;-76
2021/07/14 05:42:58;;;;;;;20.37;18.00;;;20.40;99.90;;;;;;5054355;28;20504;-76
2021/07/14 05:45:25;;;;;;;21.03;16.10;;;20.40;99.90;;;;;;5054317;28;20507;-76
2021/07/14 05:47:53;;;;;;;17.13;14.70;;;20.50;99.90;;;;;;5054193;28;20461;-75
2021/07/14 05:50:19;;;;;;;20.03;16.77;;;20.60;99.90;;;;;;5054172;28;20476;-75
2021/07/14 05:52:46;;;;;;;18.57;15.47;;;20.60;99.90;;;;;;5064092;28;20465;-75
2021/07/14 05:55:13;;;;;;;18.97;15.73;;;20.60;99.90;;;;;;5060849;28;20488;-74
2021/07/14 05:57:40;;;;;;;16.77;14.43;;;20.70;99.90;;;;;;5059287;28;20488;-74
2021/07/14 06:00:10;;;;;;;16.50;14.87;;;20.70;99.90;;;;;;5057345;28;20481;-75
2021/07/14 06:02:36;;;;;;;21.80;15.13;;;20.80;99.90;;;;;;5054505;28;20504;-75
2021/07/14 06:05:05;;;;;;;23.97;16.60;;;20.90;99.90;;;;;;5055375;28;20867;-75
2021/07/14 06:07:32;;;;;;;18.37;15.23;;;21.00;99.90;;;;;;5055261;28;20452;-76
2021/07/14 06:09:58;;;;;;;17.30;15.50;;;21.00;99.90;;;;;;5055553;28;20473;-76
2021/07/14 06:12:25;;;;;;;19.90;14.97;;;21.00;99.90;;;;;;5054716;28;20493;-74
2021/07/14 06:14:51;;;;;;;18.00;14.80;;;21.00;99.90;;;;;;5054337;28;20512;-75
2021/07/14 06:17:19;;;;;;;15.93;14.00;;;21.10;99.90;;;;;;5054281;28;20453;-75
2021/07/14 06:19:46;;;;;;;21.27;15.87;;;21.10;99.90;;;;;;5054373;28;20488;-76
2021/07/14 06:22:13;;;;;;;20.30;15.90;;;;;;;;;;5053754;28;20497;-76
2021/07/14 06:24:40;;;;;;;19.50;16.27;;;21.00;99.90;;;;;;5053512;28;20447;-76
2021/07/14 06:27:07;;;;;;;23.97;16.80;;;21.10;99.90;;;;;;5053201;28;20537;-75
2021/07/14 06:29:34;;;;;;;16.80;15.10;;;21.00;99.90;;;;;;5053705;28;20469;-75
2021/07/14 06:32:01;;;;;;;22.13;15.50;;;21.00;99.90;;;;;;5053717;28;20489;-76
2021/07/14 06:34:28;;;;;;;20.80;15.93;;;21.10;99.90;;;;;;5053785;28;20528;-76
2021/07/14 06:36:55;;;;;;;18.33;16.40;;;21.10;99.90;;;;;;5054334;28;20538;-74
2021/07/14 06:39:22;;;;;;;22.90;17.60;;;21.10;99.90;;;;;;5053662;28;20459;-74
2021/07/14 06:41:50;;;;;;;21.13;17.70;;;21.00;99.90;;;;;;5053597;28;20500;-76
2021/07/14 06:44:16;;;;;;;19.33;16.90;;;21.00;99.90;;;;;;5053838;28;20553;-76
2021/07/14 06:46:43;;;;;;;19.10;16.10;;;21.00;99.90;;;;;;5053205;28;20537;-75
2021/07/14 06:49:09;;;;;;;22.83;18.03;;;21.00;99.90;;;;;;5053032;28;20813;-75
2021/07/14 06:51:37;;;;;;;27.10;18.40;;;21.00;99.90;;;;;;5052360;28;20473;-75
2021/07/14 06:54:04;;;;;;;18.83;16.93;;;21.00;99.90;;;;;;5052426;28;20997;-75
2021/07/14 06:56:30;;;;;;;18.37;15.80;;;21.10;99.90;;;;;;5052833;28;20500;-76
2021/07/14 06:58:57;;;;;;;21.40;18.10;;;21.20;99.90;;;;;;5052457;28;20480;-76
2021/07/14 07:01:24;;;;;;;17.67;15.33;;;21.20;99.90;;;;;;5052943;28;20454;-75
2021/07/14 07:03:50;;;;;;;16.37;14.13;;;21.20;99.90;;;;;;5053389;28;20449;-75
2021/07/14 07:06:17;;;;;;;21.73;17.77;;;21.20;99.90;;;;;;5052795;28;20480;-76
2021/07/14 07:08:45;;;;;;;17.60;15.70;;;21.20;99.90;;;;;;5053091;28;20536;-75
2021/07/14 07:11:11;;;;;;;17.47;15.60;;;21.30;99.90;;;;;;5052613;28;20473;-75
2021/07/14 07:13:38;;;;;;;18.60;16.57;;;21.40;99.90;;;;;;5052634;28;20445;-76
2021/07/14 07:16:05;;;;;;;16.67;14.40;;;21.40;99.90;;;;;;5052472;28;20473;-75
2021/07/14 07:18:31;;;;;;;16.00;14.40;;;21.40;99.90;;;;;;5052479;28;20476;-75
2021/07/14 07:20:58;;;;;;;16.33;14.27;;;21.40;99.90;;;;;;5052560;28;20480;-75
2021/07/14 07:23:25;;;;;;;16.53;14.83;;;21.40;99.90;;;;;;5052586;28;20840;-74
2021/07/14 07:25:54;;;;;;;18.73;16.03;;;21.40;99.90;;;;;;5052769;28;20563;-75
2021/07/14 07:28:25;;;;;;;20.83;16.30;;;21.50;99.90;;;;;;5053725;28;20481;-76
2021/07/14 07:30:52;;;;;;;16.40;14.80;;;21.60;99.90;;;;;;5052811;28;20783;-76
2021/07/14 07:33:19;;;;;;;15.37;13.93;;;21.60;99.90;;;;;;5054577;28;20501;-76
2021/07/14 07:35:45;;;;;;;16.97;15.37;;;21.50;99.90;;;;;;5052482;28;20485;-76
2021/07/14 07:38:12;;;;;;;17.87;15.90;;;21.70;99.90;;;;;;5052991;28;20818;-76
2021/07/14 07:40:39;;;;;;;17.20;15.60;;;21.80;99.90;;;;;;5053581;28;20456;-75
2021/07/14 07:43:07;;;;;;;16.77;15.07;;;21.80;99.90;;;;;;5052976;28;20493;-75
2021/07/14 07:45:33;;;;;;;16.13;14.50;;;21.80;99.90;;;;;;5052978;28;20450;-75
2021/07/14 07:48:00;;;;;;;21.60;16.90;;;22.00;99.90;;;;;;5052268;28;20473;-75
2021/07/14 07:50:27;;;;;;;20.07;14.47;;;22.00;99.90;;;;;;5053008;28;20492;-75
2021/07/14 07:52:53;;;;;;;16.87;15.13;;;22.00;99.90;;;;;;5052519;28;20493;-75
2021/07/14 07:55:20;;;;;;;18.20;16.40;;;21.90;99.90;;;;;;5052461;28;20509;-76
2021/07/14 07:57:47;;;;;;;17.57;15.77;;;21.90;99.90;;;;;;5052217;28;20967;-75
2021/07/14 08:00:19;;;;;;;18.60;16.23;;;21.90;99.90;;;;;;5052177;28;20953;-75
2021/07/14 08:02:46;;;;;;;19.30;14.77;;;21.90;99.90;;;;;;5054152;28;20816;-76
2021/07/14 08:05:13;;;;;;;19.13;16.97;;;21.90;99.90;;;;;;5054883;28;20480;-75
2021/07/14 08:07:39;;;;;;;18.83;16.90;;;22.00;99.90;;;;;;5054590;28;20453;-75
2021/07/14 08:10:08;;;;;;;16.60;14.87;;;22.00;99.90;;;;;;5054487;28;20450;-75
2021/07/14 08:12:35;;;;;;;17.27;15.50;;;22.10;99.90;;;;;;5054768;28;20474;-75
2021/07/14 08:15:03;;;;;;;17.70;14.63;;;22.20;99.90;;;;;;5054252;28;20518;-75
2021/07/14 08:17:31;;;;;;;17.13;15.53;;;22.40;99.90;;;;;;5054759;28;20455;-76
2021/07/14 08:19:57;;;;;;;15.43;13.80;;;22.50;99.90;;;;;;5054733;28;20871;-76
2021/07/14 08:22:24;;;;;;;14.23;12.90;;;22.40;99.90;;;;;;5054597;28;20520;-76
2021/07/14 08:24:50;;;;;;;15.73;14.23;;;22.50;99.90;;;;;;5054592;28;20474;-75
2021/07/14 08:27:17;;;;;;;13.53;12.27;;;22.50;99.90;;;;;;5054400;28;20450;-75
2021/07/14 08:29:44;;;;;;;14.57;13.07;;;22.60;99.90;;;;;;5054742;28;20455;-75
2021/07/14 08:32:10;;;;;;;13.47;12.23;;;22.60;99.90;;;;;;5055058;28;20471;-75
2021/07/14 08:34:38;;;;;;;13.03;11.93;;;22.60;99.90;;;;;;5054788;28;20480;-75
2021/07/14 08:37:06;;;;;;;13.77;12.33;;;22.50;99.90;;;;;;5054433;28;20530;-75
2021/07/14 08:39:33;;;;;;;14.03;12.70;;;22.50;99.90;;;;;;5054707;28;20450;-75
2021/07/14 08:42:02;;;;;;;13.30;11.63;;;22.50;99.90;;;;;;5055379;28;20519;-76
2021/07/14 08:44:29;;;;;;;14.33;12.63;;;22.50;99.90;;;;;;5054618;28;20534;-76
2021/07/14 08:46:56;;;;;;;19.20;16.93;;;22.50;99.90;;;;;;5055835;28;20469;-74
2021/07/14 08:49:23;;;;;;;15.10;13.73;;;22.50;99.90;;;;;;5056286;28;20446;-75
2021/07/14 08:51:52;;;;;;;16.27;14.53;;;22.40;99.90;;;;;;5054342;28;20502;-75
2021/07/14 08:54:20;;;;;;;16.40;14.80;;;22.60;99.90;;;;;;5054226;28;20531;-75
2021/07/14 08:56:47;;;;;;;17.67;14.73;;;22.50;99.90;;;;;;5055026;28;20579;-74
2021/07/14 08:59:16;;;;;;;18.40;15.83;;;22.50;99.90;;;;;;5057380;28;20483;-75
2021/07/14 09:01:42;;;;;;;18.10;16.40;;;22.50;99.90;;;;;;5016297;28;1067786;-75
2021/07/14 09:04:10;;;;;;;18.27;16.47;;;22.40;99.90;;;;;;5054879;28;20472;-74
2021/07/14 09:06:36;;;;;;;17.67;16.03;;;22.50;99.90;;;;;;5054995;28;20457;-74
2021/07/14 09:09:06;;;;;;;19.30;15.40;;;22.60;99.90;;;;;;5057465;28;20596;-75
2021/07/14 09:11:48;;;;;;;18.37;16.40;;;23.00;99.90;;;;;;5056751;28;20951;-74
2021/07/14 09:14:29;;;;;;;18.50;16.70;;;23.00;99.90;;;;;;5055063;28;20435;-74
2021/07/14 09:16:56;;;;;;;18.57;16.80;;;22.90;99.90;;;;;;5055119;28;21022;-76
2021/07/14 09:19:25;;;;;;;17.20;15.60;;;22.80;99.90;;;;;;5055204;28;20474;-75
2021/07/14 09:21:53;;;;;;;18.10;16.50;;;22.90;99.90;;;;;;5054980;28;20466;-76
2021/07/14 09:24:31;;;;;;;17.97;16.33;;;23.00;99.90;;;;;;5055108;28;20470;-76
2021/07/14 09:26:58;;;;;;;17.17;15.57;;;23.20;99.90;;;;;;5055277;28;20438;-75
2021/07/14 09:29:26;;;;;;;18.37;16.67;;;23.20;99.90;;;;;;5054706;28;20481;-76
2021/07/14 09:31:53;;;;;;;17.60;15.80;;;23.20;99.90;;;;;;5054930;28;20888;-76
2021/07/14 09:34:31;;;;;;;15.43;14.03;;;23.30;99.90;;;;;;5054664;28;20547;-75
2021/07/14 09:37:00;;;;;;;14.20;12.90;;;23.30;99.90;;;;;;5054323;28;20503;-76
2021/07/14 09:39:37;;;;;;;14.77;13.43;;;23.30;99.90;;;;;;5054277;28;20505;-75
2021/07/14 09:42:06;;;;;;;13.27;12.13;;;23.30;99.90;;;;;;5054318;28;20498;-77
2021/07/14 09:44:33;;;;;;;12.50;11.30;;;23.40;99.90;;;;;;5054682;28;20502;-76
2021/07/14 09:47:11;;;;;;;13.50;12.40;;;23.50;99.90;;;;;;5054055;28;20444;-75
2021/07/14 09:49:38;;;;;;;17.47;13.03;;;23.40;99.90;;;;;;5053769;28;20450;-76
2021/07/14 09:52:12;;;;;;;15.40;14.00;;;23.40;99.90;;;;;;5054165;28;20473;-75
2021/07/14 09:54:41;;;;;;;14.13;12.90;;;23.50;99.90;;;;;;5054078;28;20451;-75
2021/07/14 09:57:10;;;;;;;14.07;12.77;;;23.50;99.90;;;;;;5053931;28;20476;-75
2021/07/14 09:59:37;;;;;;;14.50;13.10;;;23.50;99.90;;;;;;5053890;28;20484;-76
2021/07/14 10:02:05;;;;;;;13.83;12.43;;;23.20;99.90;;;;;;5067400;22;20503;-77
2021/07/14 10:04:33;;;;;;;13.67;12.47;;;23.40;99.90;;;;;;5054670;28;20899;-76
2021/07/14 10:07:08;;;;;;;12.77;11.67;;;23.30;99.90;;;;;;5054114;28;20950;-76
2021/07/14 10:09:34;;;;;;;14.20;13.00;;;23.20;99.90;;;;;;5054645;28;20482;-77
2021/07/14 10:12:28;;;;;;;13.30;12.10;;;23.20;99.90;;;;;;5054111;28;20499;-76
2021/07/14 10:14:55;;;;;;;12.77;11.60;;;23.20;99.90;;;;;;5054240;28;20513;-77
2021/07/14 10:17:38;;;;;;;13.33;12.20;;;23.20;99.90;;;;;;5053775;28;20537;-77
2021/07/14 10:20:25;;;;;;;12.67;11.37;;;23.30;99.90;;;;;;5052137;28;20826;-77
2021/07/14 10:22:53;;;;;;;16.47;13.50;;;23.30;99.90;;;;;;5054138;28;20558;-76
2021/07/14 10:25:21;;;;;;;13.83;12.53;;;23.30;99.90;;;;;;5053129;28;20991;-76
2021/07/14 10:27:51;;;;;;;13.97;12.77;;;23.30;99.90;;;;;;5053803;28;20949;-77
2021/07/14 10:30:19;;;;;;;12.03;10.93;;;23.20;99.90;;;;;;5054112;28;20480;-76
2021/07/14 10:32:47;;;;;;;13.70;12.43;;;23.30;99.90;;;;;;5054285;28;20506;-76
2021/07/14 10:35:15;;;;;;;11.63;10.50;;;23.40;99.90;;;;;;5054226;28;20498;-76
2021/07/14 10:37:50;;;;;;;12.90;11.80;;;23.50;99.90;;;;;;5054083;28;20502;-76
2021/07/14 10:40:19;;;;;;;12.50;11.30;;;23.60;99.90;;;;;;5054269;28;20442;-77
2021/07/14 10:42:46;;;;;;;12.00;10.80;;;23.70;99.90;;;;;;5054755;28;20472;-77
2021/07/14 10:45:15;;;;;;;9.43;8.70;;;23.70;99.90;;;;;;5054686;28;21022;-79
2021/07/14 10:47:44;;;;;;;11.10;9.97;;;23.70;99.90;;;;;;5057299;28;20450;-77
2021/07/14 10:50:12;;;;;;;10.60;9.50;;;23.70;99.90;;;;;;5058526;28;20448;-77
2021/07/14 10:52:39;;;;;;;10.60;9.50;;;23.70;99.90;;;;;;5056337;28;20474;-77
2021/07/14 10:55:07;;;;;;;9.27;8.57;;;23.70;99.90;;;;;;5054618;28;20449;-77
2021/07/14 10:57:34;;;;;;;12.43;7.97;;;23.70;99.90;;;;;;5054800;28;20553;-77
2021/07/14 11:00:02;;;;;;;9.70;7.87;;;23.70;99.90;;;;;;5056642;28;20448;-77
2021/07/14 11:02:41;;;;;;;9.70;8.90;;;23.70;99.90;;;;;;5057546;28;20499;-77
2021/07/14 11:05:09;;;;;;;9.43;8.43;;;23.70;99.90;;;;;;5059152;28;20467;-77
2021/07/14 11:07:37;;;;;;;14.43;10.50;;;23.60;99.90;;;;;;5060515;28;20447;-76
2021/07/14 11:10:25;;;;;;;9.70;8.90;;;23.60;99.90;;;;;;5061047;28;20449;-78
2021/07/14 11:12:52;;;;;;;9.30;8.50;;;23.60;99.90;;;;;;5055392;28;20499;-77
2021/07/14 11:15:46;;;;;;;9.50;8.70;;;23.70;99.90;;;;;;5055241;28;20886;-77
2021/07/14 11:18:42;;;;;;;11.20;9.20;;;23.70;99.90;;;;;;5052512;28;20477;-77
2021/07/14 11:21:09;;;;;;;9.40;8.60;;;23.70;99.90;;;;;;5054184;28;20479;-77
2021/07/14 11:23:35;;;;;;;8.80;8.00;;;23.70;99.90;;;;;;5056654;28;20505;-77
2021/07/14 11:26:04;;;;;;;9.67;8.97;;;23.60;99.90;;;;;;5059840;28;20479;-77
2021/07/14 11:28:32;;;;;;;10.10;9.20;;;23.80;99.90;;;;;;5057884;28;20451;-78
2021/07/14 11:31:07;;;;;;;10.20;9.20;;;23.80;99.90;;;;;;5055079;28;20511;-76
2021/07/14 11:33:35;;;;;;;8.60;7.80;;;23.90;99.90;;;;;;5054364;28;20495;-77
2021/07/14 11:36:06;;;;;;;8.83;8.13;;;24.00;99.90;;;;;;5053423;28;20485;-78
2021/07/14 11:38:43;;;;;;;7.90;7.30;;;24.10;99.90;;;;;;5057019;28;20430;-77
2021/07/14 11:41:19;;;;;;;7.97;7.37;;;24.00;99.90;;;;;;5057543;28;20434;-78
2021/07/14 11:43:47;;;;;;;8.80;8.00;;;24.00;99.90;;;;;;5057229;28;20465;-76
2021/07/14 11:46:16;;;;;;;8.63;7.90;;;24.10;99.90;;;;;;5057369;28;20446;-78
2021/07/14 11:48:45;;;;;;;7.80;7.30;;;24.20;99.90;;;;;;5057598;28;20503;-77
2021/07/14 11:51:24;;;;;;;8.77;8.07;;;24.30;99.90;;;;;;5058297;28;20444;-77
2021/07/14 11:53:52;;;;;;;10.63;7.40;;;24.30;99.90;;;;;;5057640;28;21079;-78
2021/07/14 11:56:22;;;;;;;11.47;8.80;;;24.30;99.90;;;;;;5057283;28;20873;-77
2021/07/14 11:59:08;;;;;;;10.37;9.40;;;24.20;99.90;;;;;;5057607;28;20436;-77
2021/07/14 12:01:44;;;;;;;9.07;7.80;;;24.20;99.90;;;;;;5057015;28;20887;-77
2021/07/14 12:04:10;;;;;;;8.07;7.10;;;24.20;99.90;;;;;;5056629;28;20532;-78
2021/07/14 12:06:40;;;;;;;8.27;7.30;;;24.30;99.90;;;;;;5056729;28;20532;-77
2021/07/14 12:09:27;;;;;;;8.97;8.10;;;24.40;99.90;;;;;;5057442;28;20445;-77
2021/07/14 12:11:56;;;;;;;8.63;7.93;;;24.40;99.90;;;;;;5057617;28;20445;-78
2021/07/14 12:14:25;;;;;;;7.77;6.97;;;24.40;99.90;;;;;;5058182;28;20981;-78
2021/07/14 12:16:53;;;;;;;9.10;7.77;;;24.50;99.90;;;;;;5058403;28;20897;-79
2021/07/14 12:19:21;;;;;;;6.40;5.90;;;24.60;99.90;;;;;;5060784;28;20449;-77
2021/07/14 12:21:50;;;;;;;8.33;7.70;;;24.60;99.90;;;;;;5057901;28;20446;-78
2021/07/14 12:24:32;;;;;;;7.90;7.20;;;24.70;99.90;;;;;;5056804;28;20442;-78
2021/07/14 12:27:00;;;;;;;8.90;8.00;;;24.70;99.90;;;;;;5056331;28;20904;-78
2021/07/14 12:29:27;;;;;;;9.70;8.43;;;24.70;99.90;;;;;;5056375;28;20474;-78
2021/07/14 12:31:53;;;;;;;7.60;6.80;;;24.70;99.90;;;;;;5056093;28;20477;-76
2021/07/14 12:34:23;;;;;;;7.93;6.87;;;24.70;99.90;;;;;;5055949;28;20473;-76
2021/07/14 12:36:51;;;;;;;8.30;7.60;;;24.60;99.90;;;;;;5056101;28;20477;-77
2021/07/14 12:39:22;;;;;;;8.40;7.60;;;24.60;99.90;;;;;;5055986;28;20507;-77
2021/07/14 12:41:51;;;;;;;8.03;7.30;;;24.40;99.90;;;;;;5055822;28;20433;-76
2021/07/14 12:44:18;;;;;;;10.40;7.70;;;24.30;99.90;;;;;;5055876;28;20449;-77
2021/07/14 12:46:44;;;;;;;8.77;7.97;;;24.40;99.90;;;;;;5055725;28;20507;-77